Aalborg, Denmark

6:33 AM CET on February 08, 2016 (GMT +0100)
Aalborg | | Change Station
CLOSE
Current Station
Airport
Location: Aalborg,
Elevation: 10 ft
Nearby Weather Stations

Elev 10 ft 57.10 °N, 9.85 °E | Updated 13 minutes ago

Light Rain
Light Rain
43 °F
Feels Like 34 °F
N
22
Wind Variable Wind from South

Today
High -- | Low -- °F
--% Chance of Precip.
Yesterday
High -- | Low -- °F
Precip. -- in
Pressure 29.00 in
Visibility 5.0 miles
Clouds Few 2000 ft
Mostly Cloudy 2500 ft
Windchill 34 °F
Dew Point 37 °F
Humidity 81%
Rainfall 0.00 in
Snow Depth Not available.
8:06 AM 5:03 PM
Waning Crescent, 0% visible
METAR EKYT 080520Z 17019KT 8000 -RA FEW020 BKN025 06/03 Q0982
Pressure 29.00 in
Visibility 5.0 miles
Clouds Few 2000 ft
Mostly Cloudy 2500 ft
Windchill 34 °F
Dew Point 37 °F
Humidity 81%
Rainfall 0.00 in
Snow Depth Not available.
8:06 AM 5:03 PM
Waning Crescent, 0% visible
METAR EKYT 080520Z 17019KT 8000 -RA FEW020 BKN025 06/03 Q0982

10-Day Weather Forecast

Almanac

Astronomy

Feb. 08, 2016 Rise Set
Actual Time
Civil Twilight
Nautical Twilight
Astronomical Twilight
Moon
Length of Visible Light
Length of Day
Tomorrow will be .
, % of the Moon is Illuminated

Today's Extremes

Country Highs Country Lows

Community

WunderPhotos

Upload Photos

1,891,384 photos uploaded!

WunderBlog® & News

Nearby

Air Quality

  Air Quality AQ Index Pollutant
Not available.

Snow Depth

Station Depth Elevation

Earthquake Activity

City Distance Mag. Time & Date
Minimum magnitude displayed is 2.5.

Coastal Water Temperatures

Place Temperature

Stations

Nearby Weather Stations

Station Location Temp. Windchill Dew Point Humidity Wind Precip. Elev Updated Type